Time;durP1;ratioP1;P1;durP2;ratioP2;P2;SDS_P1;SDS_P2;PMS_P1;PMS_P2;Temp;Humidity;BMP_temperature;BMP_pressure;BME280_temperature;BME280_humidity;BME280_pressure;Samples;Min_cycle;Max_cycle;Signal;HPM_P1;HPM_P2
2022/08/01 00:01:32;;;;;;;2.75;2.55;;;18.20;99.90;;;;;;4998466;28;20492;-85
2022/08/01 00:03:57;;;;;;;2.38;2.17;;;18.20;99.90;;;;;;4998933;28;20545;-85
2022/08/01 00:06:23;;;;;;;3.83;3.05;;;18.10;99.90;;;;;;4998577;28;20398;-85
2022/08/01 00:08:48;;;;;;;3.03;2.45;;;18.10;99.90;;;;;;4998790;28;20045;-84
2022/08/01 00:11:14;;;;;;;6.50;2.30;;;18.10;99.90;;;;;;4980523;28;20092;-85
2022/08/01 00:13:40;;;;;;;5.57;2.08;;;18.10;99.90;;;;;;4999056;28;20092;-84
2022/08/01 00:16:05;;;;;;;6.57;3.97;;;18.10;99.90;;;;;;4981106;28;20054;-84
2022/08/01 00:18:31;;;;;;;3.30;2.60;;;18.00;99.90;;;;;;4998817;28;20471;-85
2022/08/01 00:20:56;;;;;;;4.90;4.10;;;18.10;99.90;;;;;;4998508;28;20050;-84
2022/08/01 00:23:22;;;;;;;5.82;3.50;;;18.00;99.90;;;;;;4980620;28;20593;-85
2022/08/01 00:25:48;;;;;;;3.40;2.60;;;18.00;99.90;;;;;;4998015;28;20828;-85
2022/08/01 00:28:13;;;;;;;4.32;3.60;;;18.00;99.90;;;;;;4998875;28;20038;-85
2022/08/01 00:30:39;;;;;;;12.38;3.95;;;18.00;99.90;;;;;;4981083;28;20107;-85
2022/08/01 00:33:05;;;;;;;6.57;3.90;;;17.90;99.90;;;;;;4998585;28;20489;-84
2022/08/01 00:35:30;;;;;;;3.33;2.53;;;18.00;99.90;;;;;;4998643;28;20232;-84
2022/08/01 00:37:56;;;;;;;5.53;3.30;;;18.00;99.90;;;;;;4998329;28;20647;-85
2022/08/01 00:40:21;;;;;;;3.95;3.55;;;17.90;99.90;;;;;;4980786;28;20073;-85
2022/08/01 00:42:47;;;;;;;4.95;2.75;;;17.90;99.90;;;;;;5000075;28;20041;-84
2022/08/01 00:45:13;;;;;;;5.72;3.20;;;17.90;99.90;;;;;;5002724;28;20282;-84
2022/08/01 00:47:38;;;;;;;3.40;2.55;;;17.90;99.90;;;;;;5002808;28;20409;-84
2022/08/01 00:50:05;;;;;;;2.53;2.28;;;17.90;99.90;;;;;;5002144;28;20382;-84
2022/08/01 00:52:32;;;;;;;6.40;3.17;;;17.90;99.90;;;;;;4984708;28;20647;-84
2022/08/01 00:54:57;;;;;;;3.50;2.65;;;17.80;99.90;;;;;;5002149;28;20054;-84
2022/08/01 00:57:23;;;;;;;3.38;2.33;;;17.80;99.90;;;;;;5001367;28;20052;-85
2022/08/01 00:59:49;;;;;;;7.78;2.80;;;17.80;99.90;;;;;;4984465;28;20060;-84
2022/08/01 01:02:14;;;;;;;3.35;1.92;;;17.80;99.90;;;;;;5002293;28;20069;-78
2022/08/01 01:04:40;;;;;;;2.85;1.70;;;17.70;99.90;;;;;;5000951;28;20544;-84
2022/08/01 01:07:30;;;;;;;6.85;2.35;;;17.80;99.90;;;;;;5001936;28;20057;-83
2022/08/01 01:10:11;;;;;;;10.65;2.15;;;17.80;99.90;;;;;;5001947;28;20054;-84
2022/08/01 01:12:45;;;;;;;4.35;2.70;;;17.80;99.90;;;;;;5000483;28;20038;-84
2022/08/01 01:15:44;;;;;;;3.33;2.50;;;17.70;99.90;;;;;;5001999;28;20145;-84
2022/08/01 01:18:11;;;;;;;1.88;1.75;;;17.70;99.90;;;;;;4989256;28;20076;-84
2022/08/01 01:20:40;;;;;;;3.58;1.83;;;17.80;99.90;;;;;;4984264;28;20042;-83
2022/08/01 01:23:29;;;;;;;2.25;2.00;;;17.70;99.90;;;;;;4984032;28;20277;-84
2022/08/01 01:26:34;;;;;;;1.83;1.50;;;17.70;99.90;;;;;;4982827;28;20113;-84
2022/08/01 01:29:08;;;;;;;5.30;2.53;;;17.70;99.90;;;;;;5001492;28;20045;-84
2022/08/01 01:31:43;;;;;;;6.95;2.95;;;17.70;99.90;;;;;;5001641;28;20034;-83
2022/08/01 01:34:11;;;;;;;5.47;2.30;;;17.60;99.90;;;;;;5001390;28;20416;-84
2022/08/01 01:36:37;;;;;;;3.67;2.88;;;17.60;99.90;;;;;;4984201;28;20227;-84
2022/08/01 01:39:03;;;;;;;6.53;2.72;;;17.60;99.90;;;;;;4983911;28;20139;-83
2022/08/01 01:41:30;;;;;;;6.60;2.83;;;17.60;99.90;;;;;;5000572;28;20418;-84
2022/08/01 01:43:56;;;;;;;7.00;3.42;;;17.60;99.90;;;;;;5001154;28;20042;-83
2022/08/01 01:46:27;;;;;;;4.15;3.03;;;17.60;99.90;;;;;;4983807;28;20100;-83
2022/08/01 01:48:55;;;;;;;5.13;2.70;;;17.60;99.90;;;;;;5000853;28;20223;-83
2022/08/01 01:51:23;;;;;;;5.18;2.63;;;17.60;99.90;;;;;;4983764;28;20116;-84
2022/08/01 01:53:50;;;;;;;5.28;2.20;;;17.50;99.90;;;;;;5001122;28;20049;-83
2022/08/01 01:56:18;;;;;;;3.47;2.50;;;17.50;99.90;;;;;;5000465;28;20073;-83
2022/08/01 01:58:47;;;;;;;5.28;2.42;;;17.50;99.90;;;;;;5001734;28;20054;-83
2022/08/01 02:01:14;;;;;;;3.90;2.13;;;17.50;99.90;;;;;;5001243;28;20488;-83
2022/08/01 02:03:41;;;;;;;19.15;3.15;;;17.50;99.90;;;;;;5000593;28;20121;-83
2022/08/01 02:06:08;;;;;;;9.77;3.80;;;17.50;99.90;;;;;;4967172;28;20053;-83
2022/08/01 02:08:34;;;;;;;8.02;3.63;;;17.50;99.90;;;;;;5000639;28;20042;-83
2022/08/01 02:11:21;;;;;;;4.93;3.03;;;17.40;99.90;;;;;;4999974;28;20053;-83
2022/08/01 02:13:53;;;;;;;9.93;3.83;;;17.40;99.90;;;;;;5000871;28;20397;-83
2022/08/01 02:16:20;;;;;;;5.15;3.30;;;17.40;99.90;;;;;;5000804;28;20046;-83
2022/08/01 02:18:46;;;;;;;4.22;2.42;;;17.40;99.90;;;;;;5001032;28;20038;-83
2022/08/01 02:21:16;;;;;;;6.78;3.72;;;17.40;99.90;;;;;;5000449;28;20536;-83
2022/08/01 02:23:43;;;;;;;4.93;3.15;;;17.40;99.90;;;;;;5000383;28;20129;-83
2022/08/01 02:26:13;;;;;;;5.10;2.97;;;17.40;99.90;;;;;;4999389;28;20372;-82
2022/08/01 02:28:55;;;;;;;9.68;2.80;;;17.40;99.90;;;;;;5000152;28;20824;-82
2022/08/01 02:31:22;;;;;;;5.68;3.10;;;17.40;99.90;;;;;;4982713;28;20418;-82
2022/08/01 02:33:58;;;;;;;10.13;2.60;;;17.30;99.90;;;;;;5000140;28;20121;-83
2022/08/01 02:36:27;;;;;;;10.50;2.80;;;17.40;99.90;;;;;;5000269;28;20049;-83
2022/08/01 02:38:55;;;;;;;7.88;2.67;;;17.30;99.90;;;;;;5000302;28;20342;-83
2022/08/01 02:41:23;;;;;;;4.05;3.30;;;17.30;99.90;;;;;;4981784;28;20485;-83
2022/08/01 02:43:51;;;;;;;6.15;3.33;;;17.30;99.90;;;;;;5000700;28;20046;-83
2022/08/01 02:46:23;;;;;;;8.60;3.15;;;17.30;99.90;;;;;;5000092;28;20046;-83
2022/08/01 02:48:51;;;;;;;7.13;3.40;;;17.30;99.90;;;;;;4982553;28;20046;-82
2022/08/01 02:51:21;;;;;;;7.70;2.55;;;17.30;99.90;;;;;;4982684;28;20053;-82
2022/08/01 02:53:49;;;;;;;9.32;3.03;;;17.30;99.90;;;;;;5000566;28;20045;-82
2022/08/01 02:56:17;;;;;;;17.33;3.83;;;17.30;99.90;;;;;;4999299;28;20053;-83
2022/08/01 02:58:44;;;;;;;9.55;2.40;;;17.20;99.90;;;;;;4982502;28;20045;-83
2022/08/01 03:01:11;;;;;;;3.70;2.67;;;17.20;99.90;;;;;;4999817;28;20053;-82
2022/08/01 03:03:38;;;;;;;4.82;2.60;;;17.20;99.90;;;;;;4981803;28;20520;-82
2022/08/01 03:06:04;;;;;;;7.72;3.00;;;17.20;99.90;;;;;;4998987;28;20095;-82
2022/08/01 03:08:31;;;;;;;3.40;2.50;;;17.20;99.90;;;;;;5000171;28;20089;-83
2022/08/01 03:10:59;;;;;;;6.53;2.63;;;17.20;99.90;;;;;;4981535;28;20041;-83
2022/08/01 03:13:26;;;;;;;6.45;2.78;;;17.20;99.90;;;;;;4999410;28;20076;-83
2022/08/01 03:15:53;;;;;;;3.80;2.65;;;17.20;99.90;;;;;;4999826;28;20046;-82
2022/08/01 03:18:22;;;;;;;2.88;2.13;;;17.10;99.90;;;;;;4999752;28;20057;-82
2022/08/01 03:20:49;;;;;;;3.88;2.65;;;17.10;99.90;;;;;;4982011;28;20492;-83
2022/08/01 03:23:16;;;;;;;7.65;2.35;;;17.10;99.90;;;;;;4999210;28;20131;-82
2022/08/01 03:25:44;;;;;;;7.70;2.40;;;17.10;99.90;;;;;;4998231;28;20092;-82
2022/08/01 03:28:13;;;;;;;10.13;3.80;;;17.10;99.90;;;;;;4999740;28;20323;-82
2022/08/01 03:30:40;;;;;;;9.57;3.17;;;17.10;99.90;;;;;;4998980;28;20447;-82
2022/08/01 03:33:06;;;;;;;3.75;3.03;;;17.10;99.90;;;;;;4981613;28;20116;-82
2022/08/01 03:35:39;;;;;;;7.40;3.55;;;17.00;99.90;;;;;;4999157;28;20132;-81
2022/08/01 03:38:10;;;;;;;6.60;3.58;;;17.10;99.90;;;;;;4999542;28;20231;-81
2022/08/01 03:40:39;;;;;;;5.05;2.00;;;17.00;99.90;;;;;;4998341;28;20095;-82
2022/08/01 03:43:18;;;;;;;3.83;2.13;;;17.00;99.90;;;;;;4999000;28;20045;-81
2022/08/01 03:45:50;;;;;;;7.28;3.63;;;17.00;99.90;;;;;;4998974;28;20041;-81
2022/08/01 03:48:22;;;;;;;13.93;3.70;;;17.00;99.90;;;;;;4999179;28;20128;-81
2022/08/01 03:50:51;;;;;;;9.43;2.67;;;17.00;99.90;;;;;;4980991;28;20061;-82
2022/08/01 03:53:22;;;;;;;6.82;2.15;;;17.00;99.90;;;;;;4981199;28;20132;-82
2022/08/01 03:55:49;;;;;;;6.22;2.45;;;17.00;99.90;;;;;;4998158;28;20134;-81
2022/08/01 03:58:15;;;;;;;7.57;3.47;;;16.90;99.90;;;;;;4998922;28;20413;-82
2022/08/01 04:00:42;;;;;;;8.52;3.22;;;16.90;99.90;;;;;;4999023;28;20050;-82
2022/08/01 04:03:10;;;;;;;8.63;2.78;;;16.90;99.90;;;;;;4980999;28;20057;-81
2022/08/01 04:05:35;;;;;;;9.73;2.88;;;16.90;99.90;;;;;;4998789;28;20111;-82
2022/08/01 04:08:02;;;;;;;9.05;2.83;;;16.90;99.90;;;;;;4998859;28;20532;-81
2022/08/01 04:10:28;;;;;;;4.05;2.72;;;16.80;99.90;;;;;;4997683;28;20101;-82
2022/08/01 04:12:54;;;;;;;7.68;2.70;;;16.80;99.90;;;;;;4999117;28;20447;-81
2022/08/01 04:15:20;;;;;;;8.75;3.53;;;16.80;99.90;;;;;;4998713;28;20052;-81
2022/08/01 04:17:46;;;;;;;14.00;3.30;;;16.80;99.90;;;;;;4980737;28;20440;-81
2022/08/01 04:20:12;;;;;;;4.10;2.13;;;16.80;99.90;;;;;;4998128;28;20320;-81
2022/08/01 04:22:38;;;;;;;8.75;3.28;;;16.80;99.90;;;;;;4997792;28;20069;-81
2022/08/01 04:25:19;;;;;;;10.68;2.65;;;16.80;99.90;;;;;;4997275;28;20057;-82
2022/08/01 04:27:48;;;;;;;9.60;2.70;;;16.80;99.90;;;;;;4980759;28;20058;-82
2022/08/01 04:30:16;;;;;;;5.53;2.58;;;16.80;99.90;;;;;;4997826;28;20050;-82
2022/08/01 04:32:44;;;;;;;7.28;2.50;;;16.70;99.90;;;;;;4998218;28;20104;-82
2022/08/01 04:35:16;;;;;;;6.22;3.03;;;16.80;99.90;;;;;;4998039;28;20069;-82
2022/08/01 04:37:44;;;;;;;7.75;2.63;;;16.70;99.90;;;;;;4998128;28;20053;-83
2022/08/01 04:40:11;;;;;;;7.85;2.92;;;16.80;99.90;;;;;;4997385;28;20148;-82
2022/08/01 04:42:37;;;;;;;8.05;3.15;;;16.70;99.90;;;;;;4998189;28;20521;-82
2022/08/01 04:45:03;;;;;;;5.65;2.85;;;16.70;99.90;;;;;;4980376;28;20049;-82
2022/08/01 04:47:30;;;;;;;10.02;2.30;;;16.80;99.90;;;;;;4980918;28;20112;-82
2022/08/01 04:49:56;;;;;;;10.75;2.63;;;16.70;99.90;;;;;;4980769;28;20046;-83
2022/08/01 04:52:22;;;;;;;9.60;3.30;;;16.70;99.90;;;;;;4998024;28;20042;-83
2022/08/01 04:54:47;;;;;;;9.50;2.45;;;16.70;99.90;;;;;;4997227;28;20052;-83
2022/08/01 04:57:14;;;;;;;11.13;2.90;;;16.70;99.90;;;;;;4998211;28;20041;-83
2022/08/01 04:59:43;;;;;;;14.02;2.83;;;16.70;99.90;;;;;;4997856;28;20235;-83
2022/08/01 05:02:18;;;;;;;12.38;3.75;;;16.70;99.90;;;;;;4998338;28;20038;-83
2022/08/01 05:04:45;;;;;;;5.38;3.20;;;16.70;99.90;;;;;;4978338;28;20054;-82
2022/08/01 05:07:12;;;;;;;9.60;3.03;;;16.70;99.90;;;;;;4978589;28;20039;-82
2022/08/01 05:09:41;;;;;;;5.20;2.78;;;16.70;99.90;;;;;;4978658;28;20320;-82
2022/08/01 05:12:08;;;;;;;7.35;3.67;;;16.70;99.90;;;;;;4977535;28;20551;-81
2022/08/01 05:14:34;;;;;;;9.27;2.08;;;16.70;99.90;;;;;;4978576;28;20042;-81
2022/08/01 05:17:03;;;;;;;10.10;2.60;;;16.70;99.90;;;;;;4978568;28;20034;-81
2022/08/01 05:19:38;;;;;;;5.22;2.67;;;16.70;99.90;;;;;;4961629;28;20345;-82
2022/08/01 05:22:06;;;;;;;5.95;3.13;;;16.60;99.90;;;;;;4960708;28;20054;-83
2022/08/01 05:24:33;;;;;;;5.10;2.78;;;16.70;99.90;;;;;;4977747;28;20053;-84
2022/08/01 05:26:59;;;;;;;8.05;2.78;;;16.70;99.90;;;;;;4960211;28;20051;-83
2022/08/01 05:29:26;;;;;;;13.27;3.08;;;16.70;99.90;;;;;;4981365;28;20473;-83
2022/08/01 05:31:52;;;;;;;7.95;3.28;;;16.70;99.90;;;;;;4981661;28;20109;-83
2022/08/01 05:34:18;;;;;;;9.65;2.95;;;16.70;99.90;;;;;;4981613;28;20481;-84
2022/08/01 05:36:44;;;;;;;9.20;2.65;;;16.70;99.90;;;;;;4964163;28;20061;-83
2022/08/01 05:39:10;;;;;;;4.63;2.38;;;16.70;99.90;;;;;;4981092;28;20477;-81
2022/08/01 05:41:36;;;;;;;6.75;2.85;;;16.70;99.90;;;;;;4980418;28;20098;-82
2022/08/01 05:44:05;;;;;;;8.63;3.78;;;16.60;99.90;;;;;;4981357;28;20038;-82
2022/08/01 05:46:31;;;;;;;13.48;4.57;;;16.70;99.90;;;;;;4981265;28;20446;-78
2022/08/01 05:48:58;;;;;;;6.85;2.78;;;16.70;99.90;;;;;;4982047;28;20038;-82
2022/08/01 05:51:24;;;;;;;7.10;3.20;;;16.70;99.90;;;;;;4981433;28;20129;-82
2022/08/01 05:53:49;;;;;;;6.28;2.53;;;16.70;99.90;;;;;;4980916;28;20130;-81
2022/08/01 05:56:15;;;;;;;4.55;2.55;;;16.70;99.90;;;;;;4962956;28;20432;-82
2022/08/01 05:58:40;;;;;;;17.27;3.88;;;16.70;99.90;;;;;;4980986;28;20393;-82
2022/08/01 06:01:06;;;;;;;12.32;3.83;;;16.70;99.90;;;;;;4963333;28;20644;-81
2022/08/01 06:03:33;;;;;;;7.07;2.72;;;16.70;99.90;;;;;;4991402;28;20049;-79
2022/08/01 06:06:02;;;;;;;6.15;2.83;;;16.70;99.90;;;;;;5000897;28;20133;-81
2022/08/01 06:08:28;;;;;;;5.82;1.98;;;16.70;99.90;;;;;;4983300;28;20243;-81
2022/08/01 06:10:54;;;;;;;11.13;3.38;;;16.70;99.90;;;;;;4999735;28;20505;-81
2022/08/01 06:13:20;;;;;;;4.80;2.45;;;16.70;99.90;;;;;;5000551;28;20034;-81
2022/08/01 06:15:46;;;;;;;5.03;2.30;;;16.70;99.90;;;;;;5000408;28;20045;-82
2022/08/01 06:18:12;;;;;;;5.28;2.15;;;16.70;99.90;;;;;;4983002;28;20534;-81
2022/08/01 06:20:38;;;;;;;4.80;1.98;;;16.80;99.90;;;;;;5000505;28;20050;-80
2022/08/01 06:23:03;;;;;;;8.02;2.47;;;16.70;99.90;;;;;;4999772;28;20129;-77
2022/08/01 06:25:29;;;;;;;9.43;2.58;;;16.70;99.90;;;;;;4999740;28;20065;-81
2022/08/01 06:27:55;;;;;;;4.20;2.10;;;16.70;99.90;;;;;;4982639;28;20609;-80
2022/08/01 06:30:20;;;;;;;2.85;2.05;;;16.70;99.90;;;;;;4999852;28;20034;-81
2022/08/01 06:32:47;;;;;;;14.48;3.55;;;16.70;99.90;;;;;;5000310;28;20046;-81
2022/08/01 06:35:13;;;;;;;5.30;3.10;;;16.70;99.90;;;;;;5000351;28;20050;-80
2022/08/01 06:37:39;;;;;;;6.28;2.83;;;16.70;99.90;;;;;;4982586;28;20038;-81
2022/08/01 06:40:08;;;;;;;11.73;3.38;;;16.60;99.90;;;;;;4997856;28;20053;-80
2022/08/01 06:42:37;;;;;;;10.70;3.55;;;16.60;99.90;;;;;;5000085;28;20034;-81
2022/08/01 06:45:09;;;;;;;6.25;2.42;;;16.60;99.90;;;;;;5000728;28;20130;-80
2022/08/01 06:47:35;;;;;;;3.00;2.13;;;16.60;99.90;;;;;;5000164;28;20056;-80
2022/08/01 06:50:01;;;;;;;18.02;2.58;;;16.70;99.90;;;;;;5000548;28;20305;-81
2022/08/01 06:52:27;;;;;;;4.35;2.08;;;16.70;99.90;;;;;;5000041;28;20136;-80
2022/08/01 06:54:52;;;;;;;4.57;1.48;;;16.70;99.90;;;;;;4998882;28;20264;-80
2022/08/01 06:57:18;;;;;;;5.53;1.63;;;16.70;99.90;;;;;;4999882;28;20065;-80
2022/08/01 06:59:44;;;;;;;12.95;4.28;;;16.70;99.90;;;;;;4982279;28;20050;-80
2022/08/01 07:02:09;;;;;;;4.30;3.17;;;16.70;99.90;;;;;;4982471;28;20085;-81
2022/08/01 07:04:35;;;;;;;6.05;2.05;;;16.70;99.90;;;;;;4999901;28;20050;-80
2022/08/01 07:07:01;;;;;;;9.82;2.35;;;16.70;99.90;;;;;;5000284;28;20255;-80
2022/08/01 07:09:27;;;;;;;5.60;2.42;;;16.70;99.90;;;;;;4998768;28;20042;-81
2022/08/01 07:11:53;;;;;;;7.18;2.17;;;16.80;99.90;;;;;;4999178;28;20042;-81
2022/08/01 07:14:20;;;;;;;4.75;2.45;;;16.80;99.90;;;;;;4981972;28;20056;-80
2022/08/01 07:16:45;;;;;;;2.90;1.75;;;16.80;99.90;;;;;;4981559;28;20573;-80
2022/08/01 07:19:12;;;;;;;2.75;2.10;;;16.80;99.90;;;;;;4999331;28;20084;-81
2022/08/01 07:21:38;;;;;;;6.28;2.50;;;16.80;99.90;;;;;;4999912;28;20313;-81
2022/08/01 07:24:05;;;;;;;4.07;2.42;;;16.80;99.90;;;;;;4999846;28;20270;-80
2022/08/01 07:26:30;;;;;;;5.50;2.10;;;16.80;99.90;;;;;;4998130;28;20046;-80
2022/08/01 07:28:56;;;;;;;7.97;1.98;;;16.80;99.90;;;;;;4999276;28;20289;-80
2022/08/01 07:31:23;;;;;;;5.15;2.15;;;16.80;99.90;;;;;;4999416;28;20045;-79
2022/08/01 07:33:48;;;;;;;8.02;1.73;;;16.80;99.90;;;;;;4981439;28;20406;-80
2022/08/01 07:36:17;;;;;;;21.52;3.78;;;16.90;99.90;;;;;;4999095;28;20203;-81
2022/08/01 07:38:44;;;;;;;2.42;2.05;;;16.90;99.90;;;;;;4999382;28;20397;-81
2022/08/01 07:41:10;;;;;;;11.50;2.10;;;16.90;99.90;;;;;;4998293;28;20042;-80
2022/08/01 07:43:35;;;;;;;4.63;2.15;;;16.90;99.90;;;;;;4999584;28;20045;-80
2022/08/01 07:46:02;;;;;;;2.63;1.40;;;16.90;99.90;;;;;;4999183;28;20092;-80
2022/08/01 07:48:28;;;;;;;7.15;2.90;;;16.90;99.90;;;;;;4981041;28;20135;-80
2022/08/01 07:50:54;;;;;;;12.25;3.80;;;17.00;99.90;;;;;;4998617;28;20096;-80
2022/08/01 07:53:20;;;;;;;2.28;1.67;;;17.00;99.90;;;;;;4999163;28;20050;-80
2022/08/01 07:55:45;;;;;;;4.05;2.38;;;17.00;99.90;;;;;;4997662;28;20042;-80
2022/08/01 07:58:11;;;;;;;2.75;1.50;;;17.00;99.90;;;;;;4998927;28;20034;-80
2022/08/01 08:00:37;;;;;;;8.43;1.80;;;17.00;99.90;;;;;;4981642;28;20475;-79
2022/08/01 08:03:03;;;;;;;5.20;1.90;;;17.00;99.90;;;;;;4998260;28;20610;-79
2022/08/01 08:05:29;;;;;;;3.17;1.42;;;16.90;99.90;;;;;;4980989;28;20501;-79
2022/08/01 08:07:55;;;;;;;5.75;3.00;;;16.90;99.90;;;;;;4998739;28;20608;-80
2022/08/01 08:10:20;;;;;;;2.95;1.80;;;16.90;99.90;;;;;;4997729;28;20436;-80
2022/08/01 08:12:46;;;;;;;6.28;2.13;;;17.00;99.90;;;;;;4998998;28;20111;-80
2022/08/01 08:15:12;;;;;;;7.70;1.48;;;17.00;99.90;;;;;;4998438;28;20042;-80
2022/08/01 08:17:38;;;;;;;5.57;3.05;;;17.00;99.90;;;;;;4998922;28;20030;-79
2022/08/01 08:20:06;;;;;;;11.00;2.40;;;16.90;99.90;;;;;;4980860;28;20057;-79
2022/08/01 08:22:31;;;;;;;7.75;1.45;;;17.00;99.90;;;;;;4998502;28;20045;-80
2022/08/01 08:24:57;;;;;;;5.60;2.38;;;17.00;99.90;;;;;;4997383;28;20038;-80
2022/08/01 08:27:23;;;;;;;4.65;1.02;;;16.90;99.90;;;;;;4998562;28;20053;-80
2022/08/01 08:29:48;;;;;;;5.35;2.20;;;17.00;99.90;;;;;;4998712;28;20034;-80
2022/08/01 08:32:14;;;;;;;8.45;2.10;;;17.00;99.90;;;;;;4997996;28;20455;-81
2022/08/01 08:34:39;;;;;;;8.05;1.80;;;17.10;99.90;;;;;;4999026;28;20096;-79
2022/08/01 08:37:05;;;;;;;9.18;2.20;;;17.00;99.90;;;;;;4998420;28;20135;-80
2022/08/01 08:39:31;;;;;;;4.15;1.23;;;17.00;99.90;;;;;;4997186;28;20426;-80
2022/08/01 08:41:59;;;;;;;5.50;2.28;;;17.00;99.90;;;;;;4980936;28;20354;-80
2022/08/01 08:44:25;;;;;;;2.75;1.25;;;17.10;99.90;;;;;;4998600;28;20057;-80
2022/08/01 08:46:51;;;;;;;5.35;1.90;;;17.10;99.90;;;;;;4998059;28;20046;-80
2022/08/01 08:49:24;;;;;;;3.97;1.92;;;17.10;99.90;;;;;;4980632;28;20307;-80
2022/08/01 08:51:51;;;;;;;11.70;1.92;;;17.10;99.90;;;;;;4997966;28;20037;-80
2022/08/01 08:54:20;;;;;;;7.60;1.45;;;17.10;99.90;;;;;;4997442;28;20034;-80
2022/08/01 08:56:46;;;;;;;2.15;1.60;;;17.10;99.90;;;;;;4998386;28;20075;-82
2022/08/01 08:59:13;;;;;;;12.77;1.85;;;17.20;99.90;;;;;;4997924;28;20389;-76
2022/08/01 09:01:40;;;;;;;8.60;1.80;;;17.20;99.90;;;;;;4998493;28;20030;-80
2022/08/01 09:04:06;;;;;;;2.47;1.58;;;17.20;99.90;;;;;;5000574;28;20066;-80
2022/08/01 09:06:32;;;;;;;2.80;1.88;;;17.20;99.90;;;;;;5001742;28;20137;-81
2022/08/01 09:08:58;;;;;;;1.98;1.08;;;17.30;99.90;;;;;;5001773;28;20049;-80
2022/08/01 09:11:24;;;;;;;3.13;1.67;;;17.30;99.90;;;;;;5000860;28;20042;-80
2022/08/01 09:14:29;;;;;;;3.90;1.50;;;17.40;99.90;;;;;;5001434;28;20451;-81
2022/08/01 09:17:08;;;;;;;6.78;1.25;;;17.30;99.90;;;;;;4984252;28;20065;-80
2022/08/01 09:19:47;;;;;;;2.92;1.77;;;17.30;99.90;;;;;;5001607;28;20045;-80
2022/08/01 09:22:21;;;;;;;1.73;1.15;;;17.30;99.90;;;;;;5001488;28;20057;-80
2022/08/01 09:25:05;;;;;;;2.03;0.93;;;17.30;99.90;;;;;;5000414;28;20042;-81
2022/08/01 09:27:31;;;;;;;3.38;1.40;;;17.30;99.90;;;;;;5001819;28;20072;-80
2022/08/01 09:30:08;;;;;;;2.65;1.85;;;17.30;99.90;;;;;;5001515;28;20427;-80
2022/08/01 09:32:34;;;;;;;4.25;2.33;;;17.40;99.90;;;;;;5001703;28;20053;-81
2022/08/01 09:35:22;;;;;;;2.88;1.50;;;17.40;99.90;;;;;;5001483;28;20045;-80
2022/08/01 09:37:47;;;;;;;8.75;1.60;;;17.50;99.90;;;;;;5001022;28;20522;-80
2022/08/01 09:40:13;;;;;;;4.65;1.38;;;17.50;99.90;;;;;;5000830;28;20034;-80
2022/08/01 09:42:38;;;;;;;5.65;1.55;;;17.60;99.90;;;;;;5001263;28;20049;-80
2022/08/01 09:45:05;;;;;;;3.45;1.27;;;17.60;99.90;;;;;;5000660;28;20504;-80
2022/08/01 09:47:38;;;;;;;2.67;1.40;;;17.60;99.90;;;;;;5001007;28;20175;-80
2022/08/01 09:50:05;;;;;;;4.38;0.85;;;17.60;99.90;;;;;;5001328;28;20107;-79
2022/08/01 09:52:30;;;;;;;1.80;1.20;;;17.60;99.90;;;;;;5001121;28;20508;-80
2022/08/01 09:55:01;;;;;;;2.67;1.23;;;17.60;99.90;;;;;;5000374;28;20244;-78
2022/08/01 09:57:28;;;;;;;3.58;1.20;;;17.60;99.90;;;;;;5000616;28;20632;-79
2022/08/01 09:59:57;;;;;;;2.95;2.30;;;17.60;99.90;;;;;;5001144;28;20113;-79
2022/08/01 10:02:34;;;;;;;3.75;1.95;;;17.60;99.90;;;;;;5000533;28;20038;-79
2022/08/01 10:05:07;;;;;;;3.40;1.35;;;17.70;99.90;;;;;;5000626;28;20504;-79
2022/08/01 10:07:33;;;;;;;3.85;1.50;;;17.70;99.90;;;;;;5001082;28;20497;-79
2022/08/01 10:10:13;;;;;;;0.82;0.82;;;17.70;99.90;;;;;;4999913;28;20037;-79
2022/08/01 10:12:40;;;;;;;1.42;0.90;;;17.70;99.90;;;;;;4982899;28;20123;-78
2022/08/01 10:15:07;;;;;;;3.92;0.90;;;17.70;99.90;;;;;;5000102;28;20707;-79
2022/08/01 10:17:34;;;;;;;1.60;0.80;;;17.70;99.90;;;;;;5000403;28;20513;-79
2022/08/01 10:20:02;;;;;;;1.25;0.93;;;17.70;99.90;;;;;;4983162;28;20444;-79
2022/08/01 10:22:30;;;;;;;2.17;1.13;;;17.70;99.90;;;;;;4999774;28;20041;-79
2022/08/01 10:24:58;;;;;;;2.58;1.35;;;17.70;99.90;;;;;;4999614;28;20068;-78
2022/08/01 10:27:25;;;;;;;4.28;2.05;;;17.70;99.90;;;;;;5000572;28;20045;-80
2022/08/01 10:30:07;;;;;;;3.97;1.67;;;17.70;99.90;;;;;;5000013;28;20476;-79
2022/08/01 10:32:35;;;;;;;4.35;1.33;;;17.80;99.90;;;;;;5000538;28;20042;-80
2022/08/01 10:35:02;;;;;;;5.60;1.27;;;17.80;99.90;;;;;;4999803;28;20046;-80
2022/08/01 10:37:28;;;;;;;3.85;1.40;;;17.80;99.90;;;;;;5000470;28;20358;-80
2022/08/01 10:39:55;;;;;;;6.03;1.30;;;17.80;99.90;;;;;;4998942;28;20049;-80
2022/08/01 10:42:21;;;;;;;1.38;1.20;;;17.70;99.90;;;;;;4982116;28;20069;-80
2022/08/01 10:44:48;;;;;;;3.45;1.10;;;17.70;99.90;;;;;;5000082;28;20507;-80
2022/08/01 10:47:17;;;;;;;1.65;1.25;;;17.80;99.90;;;;;;5000261;28;20025;-79
2022/08/01 10:49:51;;;;;;;6.22;1.67;;;17.80;99.90;;;;;;4982083;28;20236;-80
2022/08/01 10:52:17;;;;;;;3.28;1.58;;;17.80;99.90;;;;;;5000692;28;20026;-80
2022/08/01 10:54:44;;;;;;;2.45;1.33;;;17.80;99.90;;;;;;4998955;28;20480;-79
2022/08/01 10:57:10;;;;;;;2.42;1.30;;;17.70;99.90;;;;;;4982465;28;20057;-78
2022/08/01 10:59:46;;;;;;;2.28;0.90;;;17.70;99.90;;;;;;4999707;28;20515;-79
2022/08/01 11:02:27;;;;;;;1.50;1.38;;;17.70;99.90;;;;;;4999124;28;20176;-78
2022/08/01 11:05:04;;;;;;;3.53;1.33;;;17.60;99.90;;;;;;4999673;28;20116;-79
2022/08/01 11:07:52;;;;;;;9.93;1.48;;;17.60;99.90;;;;;;4999199;28;20574;-80
2022/08/01 11:10:33;;;;;;;2.42;1.52;;;17.60;99.90;;;;;;4999052;28;20050;-79
2022/08/01 11:13:00;;;;;;;3.53;1.67;;;17.60;99.90;;;;;;4982242;28;20054;-79
2022/08/01 11:15:30;;;;;;;2.80;1.13;;;17.60;99.90;;;;;;4999600;28;20092;-79
2022/08/01 11:17:57;;;;;;;1.80;1.05;;;17.60;99.90;;;;;;4999501;28;20420;-79
2022/08/01 11:20:25;;;;;;;5.25;1.27;;;17.70;99.90;;;;;;4982049;28;20050;-79
2022/08/01 11:23:00;;;;;;;2.42;1.25;;;17.70;99.90;;;;;;4981379;28;20452;-78
2022/08/01 11:25:45;;;;;;;6.10;1.63;;;17.70;99.90;;;;;;4998403;28;20045;-78
2022/08/01 11:28:15;;;;;;;2.55;1.55;;;17.80;99.90;;;;;;4999021;28;20077;-78
2022/08/01 11:30:52;;;;;;;4.60;2.10;;;17.80;99.90;;;;;;4999462;28;20049;-78
2022/08/01 11:33:38;;;;;;;1.80;1.23;;;17.90;99.90;;;;;;4999041;28;20100;-78
2022/08/01 11:36:10;;;;;;;3.03;1.45;;;17.90;99.90;;;;;;4998951;28;20204;-78
2022/08/01 11:38:40;;;;;;;4.38;1.55;;;17.90;99.90;;;;;;4998929;28;20129;-78
2022/08/01 11:41:25;;;;;;;2.38;1.20;;;17.90;99.90;;;;;;4999003;28;20049;-79
2022/08/01 11:44:25;;;;;;;1.33;1.23;;;17.90;99.90;;;;;;4981482;28;20104;-78
2022/08/01 11:47:03;;;;;;;7.13;1.33;;;18.00;99.90;;;;;;4954706;28;20053;-79
2022/08/01 11:49:44;;;;;;;1.20;0.95;;;18.00;99.90;;;;;;4999207;28;20042;-79
2022/08/01 11:52:10;;;;;;;1.63;1.05;;;18.10;99.90;;;;;;4998599;28;20049;-78
2022/08/01 11:54:42;;;;;;;2.88;1.88;;;18.00;99.90;;;;;;4980286;28;20337;-78
2022/08/01 11:57:20;;;;;;;0.98;0.52;;;18.00;99.90;;;;;;4999115;28;20129;-79
2022/08/01 11:59:49;;;;;;;2.10;1.10;;;18.10;99.90;;;;;;4998568;28;20053;-79
2022/08/01 12:02:27;;;;;;;3.80;1.00;;;18.10;99.90;;;;;;4998714;28;20467;-79
2022/08/01 12:05:00;;;;;;;3.50;0.98;;;18.10;99.90;;;;;;4981487;28;20248;-79
2022/08/01 12:07:27;;;;;;;6.28;2.53;;;18.10;99.90;;;;;;4981185;28;20043;-79
2022/08/01 12:10:10;;;;;;;2.17;1.30;;;18.10;99.90;;;;;;4997450;28;20145;-80
2022/08/01 12:12:43;;;;;;;1.67;1.20;;;18.10;99.90;;;;;;4981339;28;20034;-80
2022/08/01 12:15:10;;;;;;;3.30;1.55;;;18.20;99.90;;;;;;4998485;28;20038;-81
2022/08/01 12:17:43;;;;;;;4.55;1.40;;;18.10;99.90;;;;;;4998153;28;20447;-79
2022/08/01 12:20:11;;;;;;;3.00;1.42;;;18.10;99.90;;;;;;4998243;28;20339;-80
2022/08/01 12:22:37;;;;;;;3.25;1.55;;;18.10;99.90;;;;;;4998154;28;20056;-80
2022/08/01 12:25:16;;;;;;;2.20;1.10;;;18.20;99.90;;;;;;4997598;28;20042;-80
2022/08/01 12:27:45;;;;;;;4.65;1.08;;;18.20;99.90;;;;;;4998310;28;20068;-80
2022/08/01 12:30:16;;;;;;;2.85;1.30;;;18.20;99.90;;;;;;4998406;28;20050;-80
2022/08/01 12:32:44;;;;;;;5.53;1.13;;;18.20;99.90;;;;;;4997817;28;20230;-80
2022/08/01 12:35:13;;;;;;;1.65;0.93;;;18.10;99.90;;;;;;4998462;28;20121;-78
2022/08/01 12:37:43;;;;;;;1.38;1.02;;;18.20;99.90;;;;;;4998429;28;20066;-79
2022/08/01 12:40:21;;;;;;;2.45;0.95;;;18.20;99.90;;;;;;4983562;28;20045;-79
2022/08/01 12:42:50;;;;;;;4.65;1.88;;;18.20;99.90;;;;;;4984384;28;20046;-79
2022/08/01 12:45:22;;;;;;;4.25;1.17;;;18.20;99.90;;;;;;5002206;28;20077;-79
2022/08/01 12:47:48;;;;;;;1.40;0.75;;;18.20;99.90;;;;;;5002374;28;20037;-79
2022/08/01 12:50:18;;;;;;;7.13;1.40;;;18.30;99.90;;;;;;5002421;28;20327;-78
2022/08/01 12:52:44;;;;;;;5.38;1.95;;;18.40;99.90;;;;;;5001928;28;20050;-79
2022/08/01 12:55:17;;;;;;;0.98;0.75;;;18.40;99.90;;;;;;5001059;28;20489;-78